Atlanta, GA

2:14 AM EDT on September 01, 2015 (GMT -0400)
Chastain | | Change Station
CLOSE
Current Station
Personal Weather Station
Location: Atlanta, GA
Elevation: 905 ft
Nearby Weather Stations

Elev 905 ft 33.87 °N, 84.40 °W | Updated 40 seconds ago

Clear
Clear
67.8 °F
Feels Like 67.8 °F
N
0.0
Wind Variable Wind from NNW
Gusts 0.0 mph

Today
High -- | Low -- °F
--% Chance of Precip.
Yesterday
High -- | Low -- °F
Precip. -- in
7:11 AM 8:03 PM
Waning Gibbous, 91% visible
Pressure 30.09 in
Visibility 8.0 miles
Clouds Clear
Dew Point 68 °F
Humidity 99%
Rainfall 0.00 in
Snow Depth Not available.
UV 0.0 out of 12
Pollen 7.20 out of 12
Air Quality Not available.
Flu Activity Not available.
METAR KPDK 010553Z AUTO 00000KT 8SM CLR 20/20 A3012 RMK AO2 SLP187 T02000200 10250 20200 58001
Pressure 30.09 in
Visibility 8.0 miles
Clouds Clear
Dew Point 68 °F
Humidity 99%
Rainfall 0.00 in
Snow Depth Not available.
UV 0.0 out of 12
Pollen 7.20 out of 12
Air Quality Not available.
Flu Activity Not available.
METAR KPDK 010553Z AUTO 00000KT 8SM CLR 20/20 A3012 RMK AO2 SLP187 T02000200 10250 20200 58001

10-Day Weather Forecast

×

Almanac

Astronomy

Sep. 01, 2015 Rise Set
Actual Time
Civil Twilight
Nautical Twilight
Astronomical Twilight
Moon
Length of Visible Light
Length of Day
Tomorrow will be .
, % of the Moon is Illuminated

Today's Extremes

State Highs State Lows

Community

WunderPhotos

Upload Photos

1,851,487 photos uploaded!

WunderBlogs® & News

Nearby

Air Quality

  Air Quality AQ Index Pollutant
Not available.

Snow Depth

Station Depth Elevation

Earthquake Activity

City Distance Mag. Time & Date
Minimum magnitude displayed is 2.5.

Coastal Water Temperatures

Place Temperature

Stations

Nearby Weather Stations

Station Location Temp. Windchill Dew Point Humidity Wind Precip. Elev Updated Type